createdAt,value
2022-11-24T00:00:39.244Z,7.90
2022-11-24T00:01:43.258Z,6.78
2022-11-24T00:02:48.114Z,6.13
2022-11-24T00:04:03.955Z,6.35
2022-11-24T00:05:08.818Z,6.30
2022-11-24T00:06:15.144Z,6.50
2022-11-24T00:07:20.088Z,5.68
2022-11-24T00:08:24.768Z,6.20
2022-11-24T00:09:30.042Z,5.90
2022-11-24T00:10:35.763Z,6.30
2022-11-24T00:11:40.313Z,5.68
2022-11-24T00:12:44.680Z,6.88
2022-11-24T00:13:49.351Z,6.90
2022-11-24T00:14:53.497Z,7.28
2022-11-24T00:16:18.210Z,6.63
2022-11-24T00:17:21.882Z,7.07
2022-11-24T00:18:25.526Z,7.75
2022-11-24T00:19:30.220Z,7.35
2022-11-24T00:20:34.305Z,7.13
2022-11-24T00:21:40.517Z,7.53
2022-11-24T00:22:44.651Z,7.88
2022-11-24T00:23:49.725Z,7.75
2022-11-24T00:24:54.168Z,7.90
2022-11-24T00:26:03.711Z,8.43
2022-11-24T00:27:07.859Z,8.00
2022-11-24T00:28:10.990Z,8.75
2022-11-24T00:29:14.804Z,8.48
2022-11-24T00:30:18.006Z,9.02
2022-11-24T00:31:28.352Z,8.85
2022-11-24T00:32:32.908Z,9.43
2022-11-24T00:33:37.973Z,8.85
2022-11-24T00:34:42.441Z,9.43
2022-11-24T00:35:45.495Z,8.17
2022-11-24T00:36:49.012Z,9.63
2022-11-24T00:37:55.135Z,9.20
2022-11-24T00:39:02.542Z,10.07
2022-11-24T00:40:06.985Z,9.43
2022-11-24T00:41:10.821Z,9.15
2022-11-24T00:42:15.339Z,9.70
2022-11-24T00:43:21.290Z,9.70
2022-11-24T00:44:24.838Z,9.93
2022-11-24T00:45:28.022Z,9.57
2022-11-24T00:46:31.473Z,10.07
2022-11-24T00:47:35.005Z,9.95
2022-11-24T00:48:38.255Z,9.77
2022-11-24T00:49:42.310Z,10.90
2022-11-24T00:50:46.034Z,12.02
2022-11-24T00:51:49.614Z,11.50
2022-11-24T00:52:52.650Z,11.25
2022-11-24T00:54:26.768Z,11.77
2022-11-24T00:55:33.269Z,11.32
2022-11-24T00:56:38.357Z,11.60
2022-11-24T00:57:42.129Z,11.07
2022-11-24T00:58:45.705Z,10.70
2022-11-24T00:59:48.998Z,10.55
2022-11-24T01:00:53.624Z,10.88
2022-11-24T01:01:56.379Z,10.65
2022-11-24T01:03:00.020Z,10.90
2022-11-24T01:04:05.776Z,10.55
2022-11-24T01:05:10.309Z,10.27
2022-11-24T01:06:17.202Z,11.38
2022-11-24T01:07:20.880Z,11.60
2022-11-24T01:08:24.315Z,11.70
2022-11-24T01:09:27.550Z,12.52
2022-11-24T01:10:31.060Z,12.43
2022-11-24T01:11:55.305Z,11.85
2022-11-24T01:12:59.445Z,11.25
2022-11-24T01:14:03.769Z,10.55
2022-11-24T01:15:07.561Z,10.18
2022-11-24T01:16:29.734Z,10.32
2022-11-24T01:17:34.012Z,10.00
2022-11-24T01:18:37.250Z,9.23
2022-11-24T01:19:40.534Z,9.07
2022-11-24T01:20:43.915Z,8.82
2022-11-24T01:21:47.575Z,9.10
2022-11-24T01:22:51.571Z,9.55
2022-11-24T01:23:56.579Z,8.93
2022-11-24T01:25:00.085Z,10.45
2022-11-24T01:26:07.426Z,9.80
2022-11-24T01:27:12.111Z,10.38
2022-11-24T01:28:17.447Z,9.15
2022-11-24T01:29:21.248Z,9.40
2022-11-24T01:30:25.293Z,9.27
2022-11-24T01:31:29.587Z,9.82
2022-11-24T01:32:38.991Z,10.38
2022-11-24T01:33:42.519Z,10.20
2022-11-24T01:34:45.800Z,9.63
2022-11-24T01:35:49.209Z,9.93
2022-11-24T01:36:52.704Z,10.43
2022-11-24T01:37:56.182Z,10.45
2022-11-24T01:38:59.653Z,9.27
2022-11-24T01:40:03.583Z,8.80
2022-11-24T01:41:12.241Z,8.67
2022-11-24T01:42:15.856Z,8.40
2022-11-24T01:43:23.377Z,11.52
2022-11-24T01:44:29.953Z,10.05
2022-11-24T01:45:41.994Z,9.40
2022-11-24T01:46:49.527Z,9.30
2022-11-24T01:47:52.969Z,10.57
2022-11-24T01:49:15.050Z,12.38
2022-11-24T01:50:20.123Z,10.50
2022-11-24T01:51:28.327Z,9.75
2022-11-24T01:52:39.574Z,9.50
2022-11-24T01:53:46.671Z,9.15
2022-11-24T01:55:14.573Z,9.10
2022-11-24T01:56:18.953Z,9.07
2022-11-24T01:57:49.311Z,9.27
2022-11-24T01:58:55.233Z,10.45
2022-11-24T02:00:18.315Z,10.05
2022-11-24T02:01:23.413Z,10.13
2022-11-24T02:02:30.251Z,11.40
2022-11-24T02:03:39.052Z,9.90
2022-11-24T02:04:43.214Z,10.00
2022-11-24T02:06:02.964Z,10.25
2022-11-24T02:07:08.475Z,9.60
2022-11-24T02:08:35.390Z,9.60
2022-11-24T02:09:48.052Z,9.30
2022-11-24T02:10:51.799Z,8.57
2022-11-24T02:11:56.876Z,10.30
2022-11-24T02:13:03.938Z,11.95
2022-11-24T02:14:11.539Z,10.85
2022-11-24T02:15:20.510Z,10.30
2022-11-24T02:16:25.267Z,9.20
2022-11-24T02:17:29.244Z,9.40
2022-11-24T02:18:34.301Z,9.10
2022-11-24T02:19:55.879Z,9.80
2022-11-24T02:21:01.988Z,8.98
2022-11-24T02:22:09.587Z,9.10
2022-11-24T02:23:16.087Z,9.27
2022-11-24T02:24:34.032Z,9.00
2022-11-24T02:25:47.985Z,9.90
2022-11-24T02:26:53.612Z,10.07
2022-11-24T02:27:59.876Z,9.07
2022-11-24T02:29:05.211Z,9.30
2022-11-24T02:30:10.661Z,8.82
2022-11-24T02:31:15.233Z,9.18
2022-11-24T02:32:21.142Z,9.80
2022-11-24T02:33:26.411Z,9.20
2022-11-24T02:34:31.342Z,9.05
2022-11-24T02:35:36.464Z,9.20
2022-11-24T02:36:40.675Z,9.95
2022-11-24T02:37:45.072Z,9.48
2022-11-24T02:38:49.510Z,9.33
2022-11-24T02:39:54.328Z,9.10
2022-11-24T02:41:00.912Z,9.38
2022-11-24T02:42:09.193Z,9.02
2022-11-24T02:43:20.259Z,8.10
2022-11-24T02:44:29.714Z,8.13
2022-11-24T02:45:33.057Z,7.75
2022-11-24T02:46:36.890Z,7.35
2022-11-24T02:47:40.944Z,7.50
2022-11-24T02:48:44.536Z,7.40
2022-11-24T02:49:47.742Z,7.80
2022-11-24T02:50:51.153Z,7.97
2022-11-24T02:51:55.099Z,8.40
2022-11-24T02:52:58.358Z,8.23
2022-11-24T02:54:02.039Z,7.90
2022-11-24T02:55:06.790Z,8.63
2022-11-24T02:56:11.097Z,7.82
2022-11-24T02:57:14.662Z,8.10
2022-11-24T02:58:18.876Z,7.45
2022-11-24T02:59:23.180Z,8.38
2022-11-24T03:00:26.594Z,8.43
2022-11-24T03:01:30.129Z,7.35
2022-11-24T03:02:34.920Z,7.38
2022-11-24T03:03:39.106Z,7.20
2022-11-24T03:04:42.408Z,7.05
2022-11-24T03:05:46.338Z,7.13
2022-11-24T03:06:51.131Z,7.28
2022-11-24T03:07:54.955Z,7.88
2022-11-24T03:08:58.162Z,8.43
2022-11-24T03:10:01.175Z,8.85
2022-11-24T03:11:05.498Z,8.13
2022-11-24T03:12:08.982Z,8.10
2022-11-24T03:13:13.046Z,8.18
2022-11-24T03:14:16.589Z,9.43
2022-11-24T03:15:20.739Z,9.45
2022-11-24T03:16:25.509Z,8.65
2022-11-24T03:17:30.739Z,8.38
2022-11-24T03:18:34.777Z,9.32
2022-11-24T03:19:38.392Z,9.60
2022-11-24T03:20:42.368Z,9.25
2022-11-24T03:21:45.359Z,8.77
2022-11-24T03:22:48.666Z,8.40
2022-11-24T03:23:54.834Z,8.27
2022-11-24T03:24:59.156Z,7.70
2022-11-24T03:26:13.841Z,7.78
2022-11-24T03:27:18.050Z,7.60
2022-11-24T03:28:21.446Z,7.90
2022-11-24T03:29:25.352Z,8.52
2022-11-24T03:30:29.779Z,7.70
2022-11-24T03:31:35.230Z,7.32
2022-11-24T03:32:39.183Z,6.40
2022-11-24T03:33:43.410Z,6.88
2022-11-24T03:34:48.099Z,6.07
2022-11-24T03:35:51.503Z,5.93
2022-11-24T03:36:54.730Z,6.15
2022-11-24T03:37:58.071Z,7.05
2022-11-24T03:39:02.389Z,7.30
2022-11-24T03:40:07.853Z,7.60
2022-11-24T03:41:11.888Z,7.53
2022-11-24T03:42:15.981Z,7.38
2022-11-24T03:43:20.451Z,7.60
2022-11-24T03:44:24.914Z,8.00
2022-11-24T03:45:45.593Z,7.40
2022-11-24T03:46:50.067Z,7.85
2022-11-24T03:47:54.341Z,9.27
2022-11-24T03:48:59.208Z,9.00
2022-11-24T03:50:04.009Z,8.40
2022-11-24T03:51:09.146Z,7.95
2022-11-24T03:52:14.204Z,7.30
2022-11-24T03:53:18.363Z,7.28
2022-11-24T03:54:22.006Z,7.30
2022-11-24T03:55:26.832Z,7.00
2022-11-24T03:56:30.336Z,6.95
2022-11-24T03:57:34.531Z,7.20
2022-11-24T03:58:38.620Z,7.20
2022-11-24T03:59:43.691Z,6.60
2022-11-24T04:00:49.863Z,6.43
2022-11-24T04:01:53.473Z,6.20
2022-11-24T04:02:56.948Z,6.50
2022-11-24T04:04:00.241Z,6.38
2022-11-24T04:05:04.370Z,6.23
2022-11-24T04:06:08.062Z,6.88
2022-11-24T04:07:13.764Z,7.07
2022-11-24T04:08:20.101Z,7.00
2022-11-24T04:09:24.922Z,7.00
2022-11-24T04:10:30.305Z,6.88
2022-11-24T04:11:53.416Z,8.40
2022-11-24T04:12:58.429Z,7.80
2022-11-24T04:14:02.078Z,7.05
2022-11-24T04:15:06.981Z,8.07
2022-11-24T04:16:10.930Z,7.73
2022-11-24T04:17:14.475Z,6.97
2022-11-24T04:18:18.377Z,7.10
2022-11-24T04:19:21.992Z,7.22
2022-11-24T04:20:26.125Z,7.25
2022-11-24T04:21:29.721Z,6.75
2022-11-24T04:22:33.379Z,7.75
2022-11-24T04:23:37.380Z,9.90
2022-11-24T04:24:40.793Z,10.80
2022-11-24T04:25:44.436Z,8.27
2022-11-24T04:26:49.153Z,8.53
2022-11-24T04:27:54.406Z,8.30
2022-11-24T04:28:57.571Z,8.70
2022-11-24T04:30:01.603Z,9.48
2022-11-24T04:31:06.543Z,9.85
2022-11-24T04:32:10.216Z,8.30
2022-11-24T04:33:14.550Z,7.90
2022-11-24T04:34:17.862Z,7.75
2022-11-24T04:35:21.870Z,7.57
2022-11-24T04:36:25.697Z,7.47
2022-11-24T04:37:29.267Z,7.47
2022-11-24T04:39:22.852Z,7.32
2022-11-24T04:39:58.151Z,8.07
2022-11-24T04:41:05.168Z,7.85
2022-11-24T04:42:09.689Z,7.72
2022-11-24T04:43:14.430Z,7.40
2022-11-24T04:44:18.682Z,7.80
2022-11-24T04:45:23.130Z,7.35
2022-11-24T04:46:26.687Z,7.53
2022-11-24T04:47:31.222Z,7.15
2022-11-24T04:48:34.844Z,7.20
2022-11-24T04:49:38.340Z,7.20
2022-11-24T04:50:42.516Z,6.90
2022-11-24T04:51:47.108Z,9.55
2022-11-24T04:52:51.916Z,8.88
2022-11-24T04:53:56.150Z,7.10
2022-11-24T04:55:00.493Z,10.13
2022-11-24T04:56:07.821Z,6.78
2022-11-24T04:57:17.533Z,6.93
2022-11-24T04:58:21.225Z,6.70
2022-11-24T04:59:24.677Z,7.50
2022-11-24T05:00:28.231Z,7.75
2022-11-24T05:01:32.697Z,7.80
2022-11-24T05:02:38.361Z,8.07
2022-11-24T05:03:42.520Z,7.57
2022-11-24T05:04:47.087Z,7.70
2022-11-24T05:05:51.671Z,7.22
2022-11-24T05:06:56.561Z,7.18
2022-11-24T05:08:02.445Z,7.90
2022-11-24T05:09:07.844Z,7.30
2022-11-24T05:10:30.110Z,7.07
2022-11-24T05:11:34.347Z,8.45
2022-11-24T05:12:38.759Z,7.97
2022-11-24T05:13:42.311Z,8.20
2022-11-24T05:14:46.334Z,8.18
2022-11-24T05:15:50.462Z,7.72
2022-11-24T05:16:55.367Z,8.02
2022-11-24T05:18:01.218Z,7.63
2022-11-24T05:19:06.206Z,9.35
2022-11-24T05:20:11.217Z,9.13
2022-11-24T05:21:16.102Z,7.50
2022-11-24T05:22:21.189Z,7.30
2022-11-24T05:23:25.123Z,7.30
2022-11-24T05:24:29.871Z,7.45
2022-11-24T05:25:35.451Z,7.03
2022-11-24T05:26:40.430Z,7.03
2022-11-24T05:27:45.754Z,6.60
2022-11-24T05:28:49.676Z,8.02
2022-11-24T05:29:53.848Z,7.05
2022-11-24T05:31:05.351Z,7.00
2022-11-24T05:32:09.434Z,6.80
2022-11-24T05:33:20.405Z,6.90
2022-11-24T05:34:23.713Z,7.47
2022-11-24T05:35:27.655Z,8.07
2022-11-24T05:36:50.636Z,8.05
2022-11-24T05:37:54.437Z,8.02
2022-11-24T05:38:59.529Z,8.55
2022-11-24T05:40:04.039Z,9.15
2022-11-24T05:41:10.500Z,8.95
2022-11-24T05:42:33.064Z,9.38
2022-11-24T05:43:37.884Z,7.07
2022-11-24T05:44:43.469Z,8.35
2022-11-24T05:45:47.207Z,8.18
2022-11-24T05:46:52.175Z,8.30
2022-11-24T05:47:56.297Z,8.88
2022-11-24T05:48:59.650Z,8.82
2022-11-24T05:50:05.960Z,7.50
2022-11-24T05:51:10.237Z,7.25
2022-11-24T05:52:15.652Z,7.15
2022-11-24T05:53:21.406Z,7.45
2022-11-24T05:54:26.220Z,7.30
2022-11-24T05:55:30.862Z,6.88
2022-11-24T05:56:35.372Z,7.15
2022-11-24T05:57:38.890Z,7.80
2022-11-24T05:58:44.566Z,7.70
2022-11-24T05:59:49.073Z,8.00
2022-11-24T06:00:52.125Z,7.32
2022-11-24T06:01:57.025Z,7.85
2022-11-24T06:03:02.888Z,7.88
2022-11-24T06:04:07.131Z,9.30
2022-11-24T06:05:12.126Z,9.07
2022-11-24T06:06:17.110Z,9.80
2022-11-24T06:07:21.988Z,9.85
2022-11-24T06:08:31.060Z,8.63
2022-11-24T06:09:40.399Z,9.20
2022-11-24T06:10:45.215Z,9.00
2022-11-24T06:11:50.744Z,8.18
2022-11-24T06:12:54.991Z,9.00
2022-11-24T06:13:59.389Z,9.27
2022-11-24T06:15:04.027Z,8.18
2022-11-24T06:16:10.519Z,7.87
2022-11-24T06:17:15.664Z,8.20
2022-11-24T06:18:19.874Z,7.43
2022-11-24T06:19:24.014Z,7.90
2022-11-24T06:20:32.417Z,7.80
2022-11-24T06:21:36.557Z,7.53
2022-11-24T06:22:40.560Z,8.18
2022-11-24T06:23:45.306Z,8.93
2022-11-24T06:24:55.152Z,8.48
2022-11-24T06:26:03.585Z,8.57
2022-11-24T06:27:08.875Z,8.30
2022-11-24T06:28:14.137Z,7.85
2022-11-24T06:29:18.676Z,8.20
2022-11-24T06:30:22.399Z,9.38
2022-11-24T06:31:26.302Z,9.73
2022-11-24T06:32:30.259Z,10.13
2022-11-24T06:33:39.714Z,10.02
2022-11-24T06:34:44.915Z,11.57
2022-11-24T06:35:49.929Z,10.18
2022-11-24T06:36:54.050Z,11.27
2022-11-24T06:37:58.800Z,11.13
2022-11-24T06:39:04.258Z,11.70
2022-11-24T06:40:12.294Z,12.75
2022-11-24T06:41:18.423Z,16.35
2022-11-24T06:42:22.357Z,13.70
2022-11-24T06:43:29.544Z,15.27
2022-11-24T06:44:34.311Z,17.30
2022-11-24T06:45:38.741Z,16.23
2022-11-24T06:46:42.419Z,17.10
2022-11-24T06:47:46.635Z,18.10
2022-11-24T06:48:53.687Z,19.17
2022-11-24T06:49:57.355Z,18.00
2022-11-24T06:51:08.721Z,15.70
2022-11-24T06:52:13.566Z,15.90
2022-11-24T06:53:17.834Z,17.80
2022-11-24T06:54:23.557Z,16.02
2022-11-24T06:55:27.450Z,16.27
2022-11-24T06:56:31.072Z,17.58
2022-11-24T06:57:36.219Z,16.67
2022-11-24T06:58:45.770Z,17.45
2022-11-24T06:59:51.159Z,17.20
2022-11-24T07:00:56.252Z,15.55
2022-11-24T07:02:01.761Z,14.98
2022-11-24T07:03:06.407Z,17.27
2022-11-24T07:04:11.064Z,21.70
2022-11-24T07:05:15.715Z,22.35
2022-11-24T07:06:20.020Z,21.35
2022-11-24T07:07:24.384Z,20.60
2022-11-24T07:08:30.635Z,17.52
2022-11-24T07:09:33.750Z,14.00
2022-11-24T07:10:36.519Z,12.83
2022-11-24T07:11:39.568Z,7.82
2022-11-24T07:12:42.235Z,8.00
2022-11-24T07:13:46.186Z,7.50
2022-11-24T07:14:48.417Z,7.65
2022-11-24T07:15:52.424Z,7.28
2022-11-24T07:16:56.528Z,6.38
2022-11-24T07:17:59.856Z,6.75
2022-11-24T07:19:03.290Z,7.75
2022-11-24T07:20:07.473Z,8.38
2022-11-24T07:21:10.498Z,8.90
2022-11-24T07:22:14.046Z,11.45
2022-11-24T07:23:18.794Z,14.27
2022-11-24T07:24:22.340Z,26.88
2022-11-24T07:25:26.698Z,31.98
2022-11-24T07:26:29.616Z,33.55
2022-11-24T07:27:32.060Z,33.83
2022-11-24T07:28:37.719Z,34.30
2022-11-24T07:29:41.101Z,33.20
2022-11-24T07:30:45.254Z,30.25
2022-11-24T07:31:49.637Z,29.27
2022-11-24T07:32:58.668Z,26.30
2022-11-24T07:34:01.547Z,27.00
2022-11-24T07:35:04.301Z,26.55
2022-11-24T07:36:08.201Z,27.52
2022-11-24T07:37:10.941Z,28.15
2022-11-24T07:38:13.405Z,28.80
2022-11-24T07:39:15.933Z,28.17
2022-11-24T07:40:19.323Z,26.70
2022-11-24T07:41:22.285Z,25.85
2022-11-24T07:42:25.879Z,23.80
2022-11-24T07:43:31.453Z,24.95
2022-11-24T07:44:35.930Z,25.20
2022-11-24T07:45:39.426Z,26.40
2022-11-24T07:46:42.957Z,26.27
2022-11-24T07:47:45.674Z,26.90
2022-11-24T07:48:48.703Z,24.05
2022-11-24T07:49:52.362Z,24.55
2022-11-24T07:50:56.281Z,23.02
2022-11-24T07:52:04.533Z,21.42
2022-11-24T07:53:09.759Z,23.93
2022-11-24T07:54:14.258Z,25.30
2022-11-24T07:55:18.314Z,27.55
2022-11-24T07:56:22.605Z,27.40
2022-11-24T07:57:25.828Z,23.83
2022-11-24T07:58:34.104Z,23.88
2022-11-24T07:59:36.508Z,25.08
2022-11-24T08:00:39.306Z,24.77
2022-11-24T08:01:43.701Z,25.65
2022-11-24T08:02:47.533Z,25.20
2022-11-24T08:03:50.147Z,23.55
2022-11-24T08:04:52.971Z,23.27
2022-11-24T08:07:23.729Z,23.80
2022-11-24T08:08:27.668Z,23.00
2022-11-24T08:09:31.803Z,21.92
2022-11-24T08:10:36.214Z,22.33
2022-11-24T08:11:39.424Z,22.30
2022-11-24T08:12:43.797Z,19.30
2022-11-24T08:13:47.983Z,16.90
2022-11-24T08:14:51.418Z,16.23
2022-11-24T08:15:54.020Z,15.83
2022-11-24T08:17:00.512Z,17.85
2022-11-24T08:18:03.965Z,15.63
2022-11-24T08:19:06.654Z,17.58
2022-11-24T08:20:09.527Z,15.02
2022-11-24T08:21:15.452Z,14.02
2022-11-24T08:22:18.176Z,13.88
2022-11-24T08:23:20.583Z,13.73
2022-11-24T08:24:23.916Z,13.98
2022-11-24T08:25:33.981Z,13.98
2022-11-24T08:26:37.174Z,14.67
2022-11-24T08:27:40.597Z,12.45
2022-11-24T08:28:43.799Z,13.38
2022-11-24T08:29:46.486Z,12.70
2022-11-24T08:30:48.996Z,12.32
2022-11-24T08:31:53.288Z,11.60
2022-11-24T08:32:58.816Z,11.65
2022-11-24T08:34:02.621Z,10.93
2022-11-24T08:35:14.021Z,10.95
2022-11-24T08:36:19.598Z,10.80
2022-11-24T08:37:24.310Z,10.23
2022-11-24T08:38:28.497Z,10.13
2022-11-24T08:39:31.330Z,10.35
2022-11-24T08:40:34.593Z,9.80
2022-11-24T08:41:37.144Z,10.27
2022-11-24T08:42:40.452Z,10.35
2022-11-24T08:43:43.446Z,10.80
2022-11-24T08:44:46.105Z,10.13
2022-11-24T08:45:49.513Z,10.45
2022-11-24T08:46:55.832Z,11.07
2022-11-24T08:48:00.746Z,10.50
2022-11-24T08:49:05.621Z,10.73
2022-11-24T08:50:09.065Z,10.68
2022-11-24T08:51:15.476Z,15.95
2022-11-24T08:52:18.170Z,10.90
2022-11-24T08:53:22.054Z,12.75
2022-11-24T08:54:26.673Z,9.52
2022-11-24T08:55:29.397Z,10.18
2022-11-24T08:56:34.926Z,8.93
2022-11-24T08:57:40.095Z,8.90
2022-11-24T08:58:43.474Z,9.53
2022-11-24T08:59:46.810Z,8.82
2022-11-24T09:00:50.159Z,8.65
2022-11-24T09:01:53.434Z,8.68
2022-11-24T09:02:58.380Z,9.35
2022-11-24T09:04:01.185Z,10.40
2022-11-24T09:05:07.241Z,10.48
2022-11-24T09:06:25.861Z,10.73
2022-11-24T09:07:29.181Z,10.55
2022-11-24T09:08:32.814Z,11.05
2022-11-24T09:09:37.604Z,11.50
2022-11-24T09:10:40.808Z,10.50
2022-11-24T09:11:45.484Z,10.23
2022-11-24T09:12:49.437Z,8.63
2022-11-24T09:13:54.015Z,8.75
2022-11-24T09:14:59.333Z,9.35
2022-11-24T09:16:09.965Z,9.23
2022-11-24T09:17:13.453Z,9.27
2022-11-24T09:18:17.233Z,9.52
2022-11-24T09:19:20.574Z,10.48
2022-11-24T09:20:25.191Z,9.87
2022-11-24T09:21:29.208Z,10.98
2022-11-24T09:22:32.256Z,10.90
2022-11-24T09:23:34.921Z,11.32
